Elephant Butte, NM

3:00 PM MDT on August 29, 2015 (GMT -0600)
Truth Or Consequences Municipal | | Change Station
CLOSE
Current Station
Airport
Location: Truth Or Consequences,
Elevation: 4859 ft
Nearby Weather Stations

Elev 4859 ft 33.24 °N, 107.27 °W | Updated 7 minutes ago

Clear
Clear
90 °F
Feels Like 90 °F
N
8
Wind Variable Wind from ENE

Today
High -- | Low -- °F
--% Chance of Precip.
Yesterday
High -- | Low -- °F
Precip. -- in
6:41 AM 7:38 PM
Full, 100% visible
Pressure 29.88 in
Visibility 10.0 miles
Clouds Clear
Dew Point 48 °F
Humidity 24%
Rainfall 0.16 in
Snow Depth Not available.
UV 10 out of 12
Pollen 7.10 out of 12
Air Quality Not available.
Flu Activity Not available.
METAR KTCS 292053Z AUTO 07007KT 10SM CLR 32/09 A3016 RMK AO2 SLP119 T03220089 58025 TSNO
Pressure 29.88 in
Visibility 10.0 miles
Clouds Clear
Dew Point 48 °F
Humidity 24%
Rainfall 0.16 in
Snow Depth Not available.
UV 10 out of 12
Pollen 7.10 out of 12
Air Quality Not available.
Flu Activity Not available.
METAR KTCS 292053Z AUTO 07007KT 10SM CLR 32/09 A3016 RMK AO2 SLP119 T03220089 58025 TSNO

10-Day Weather Forecast

×

Almanac

Astronomy

Aug. 29, 2015 Rise Set
Actual Time
Civil Twilight
Nautical Twilight
Astronomical Twilight
Moon
Length of Visible Light
Length of Day
Tomorrow will be .
, % of the Moon is Illuminated

Today's Extremes

State Highs State Lows

Community

WunderPhotos

Upload Photos

1,850,800 photos uploaded!

WunderBlogs® & News

Nearby

Air Quality

  Air Quality AQ Index Pollutant
Not available.

Snow Depth

Station Depth Elevation

Earthquake Activity

City Distance Mag. Time & Date
Minimum magnitude displayed is 2.5.

Coastal Water Temperatures

Place Temperature

Stations

Nearby Weather Stations

Station Location Temp. Windchill Dew Point Humidity Wind Precip. Elev Updated Type